NCAR-RAP Real-Time Weather Data

Output produced by METARs form (08 May 2021  17:09 UTC)
found at http://weather.rap.ucar.edu/surface/
 
KLAX 081653Z 26007KT 10SM BKN024 BKN031 17/12 A2997 RMK AO2 SLP147 T01670117 $
KLAX 081553Z 00000KT 10SM FEW023 BKN029 17/11 A2996 RMK AO2 SLP144 T01720106 $
KLAX 081453Z 00000KT 10SM FEW021 BKN029 16/11 A2995 RMK AO2 SLP142 T01610106 53014 $
KLAX 081353Z 00000KT 10SM FEW019 BKN027 15/11 A2994 RMK AO2 SLP137 T01500106 $
KLAX 081253Z 00000KT 10SM FEW016 BKN024 14/11 A2992 RMK AO2 SLP131 T01440106 $
KLAX 081241Z 00000KT 10SM FEW016 BKN024 14/10 A2992 RMK AO2 T01390100 $
KLAX 081153Z 00000KT 10SM FEW015 FEW022 14/10 A2991 RMK AO2 SLP127 T01440100 10156 20144 58005 $
KLAX 081125Z 00000KT 10SM FEW015 SCT022 15/10 A2991 RMK AO2 T01500100 $
KLAX 081053Z 14003KT 10SM FEW015 BKN020 15/10 A2992 RMK AO2 SLP129 T01500100 $
KLAX 080953Z 19006KT 10SM FEW015 OVC020 16/11 A2992 RMK AO2 SLP131 T01560106 $
KLAX 080853Z 15005KT 10SM FEW015 OVC019 16/11 A2993 RMK AO2 SLP132 T01560111 58009 $
KLAX 080753Z 00000KT 10SM BKN015 OVC019 16/11 A2994 RMK AO2 SLP136 T01560111 401890144 $
KLAX 080653Z 00000KT 10SM BKN015 BKN020 16/12 A2995 RMK AO2 SLP139 T01560117 $
KLAX 080553Z 18004KT 10SM BKN016 15/12 A2995 RMK AO2 SLP142 T01500117 10172 20150 51007 $
KLAX 080547Z 18004KT 10SM BKN016 15/12 A2995 RMK AO2 T01500117 $
KLAX 080453Z 20003KT 10SM FEW016 15/12 A2995 RMK AO2 SLP141 T01500122 $
KLAX 080353Z 26004KT 10SM FEW016 15/12 A2994 RMK AO2 SLP139 T01500117 $
KLAX 080253Z 25008KT 10SM SCT016 15/11 A2993 RMK AO2 SLP135 T01500111 56008 $
KLAX 080227Z 25010KT 10SM SCT016 16/12 A2994 RMK AO2 T01560117 $
KLAX 080153Z 24010KT 10SM BKN014 16/12 A2994 RMK AO2 SLP137 T01610117 $
KLAX 080121Z 24012KT 10SM BKN014 16/12 A2994 RMK AO2 T01560117 $
KLAX 080053Z 26011KT 10SM BKN015 17/12 A2994 RMK AO2 SLP139 T01670117 $
KLAX 072353Z 25013KT 10SM BKN016 17/12 A2996 RMK AO2 SLP142 T01720117 10189 20161 57015 $
KLAX 072310Z 26014KT 10SM BKN018 18/12 A2996 RMK AO2 T01780122 $
KLAX 072253Z 25012KT 10SM SCT018 SCT028 18/12 A2997 RMK AO2 SLP146 T01780117 $
KLAX 072153Z 25012G20KT 10SM SCT020 SCT028 18/11 A2999 RMK AO2 SLP154 T01780111 $
KLAX 072053Z 25010KT 10SM FEW026 SCT028 18/11 A3000 RMK AO2 SLP158 T01830111 58011 $
KLAX 072015Z 24009KT 10SM SCT028 18/11 A3002 RMK AO2 T01780111 $
KLAX 071953Z 23010KT 10SM BKN027 18/11 A3002 RMK AO2 SLP164 T01780111 $
KLAX 071853Z 25007KT 10SM OVC025 17/11 A3004 RMK AO2 SLP172 T01670106 $
KLAX 071753Z 27005KT 10SM OVC025 16/11 A3004 RMK AO2 SLP170 T01610106 10167 20144 50004 $
KLAX 071653Z 26006KT 10SM OVC023 16/11 A3004 RMK AO2 SLP171 T01560106 $
KLAX 071553Z 24004KT 8SM OVC027 16/11 A3004 RMK AO2 SLP170 T01560106 $
KLAX 071453Z 26003KT 8SM OVC027 15/11 A3002 RMK AO2 SLP166 T01500106 50007 $
KLAX 071353Z 26007KT 8SM OVC025 15/11 A3003 RMK AO2 PRESRR SLP167 T01500106 $
KLAX 071253Z 25006KT 10SM OVC018 14/11 A3001 RMK AO2 SLP160 T01440106 $
KLAX 071153Z 26005KT 10SM OVC016 14/11 A3000 RMK AO2 SLP158 T01440106 10150 20144 56007 $
KLAX 071053Z 26006KT 10SM OVC016 14/11 A3001 RMK AO2 SLP159 T01440106 $
KLAX 070953Z 22006KT 10SM OVC016 14/11 A3001 RMK AO2 SLP160 T01440106 $
KLAX 070853Z 25005KT 10SM OVC016 14/11 A3002 RMK AO2 SLP164 T01440106 58011 $
KLAX 070753Z 00000KT 10SM OVC015 14/11 A3003 RMK AO2 SLP168 T01440106 401940139 $
KLAX 070706Z 30005KT 10SM OVC015 14/11 A3004 RMK AO2 T01440106 $
KLAX 070653Z 32005KT 10SM OVC014 14/11 A3004 RMK AO2 SLP172 T01440106 $
KLAX 070553Z VRB04KT 10SM OVC014 14/11 A3006 RMK AO2 SLP176 T01440111 10167 20139 50001 $
KLAX 070453Z 27006KT 10SM OVC014 14/11 A3006 RMK AO2 SLP178 T01390111 $
KLAX 070451Z 27007KT 10SM OVC014 14/11 A3006 RMK AO2 $
KLAX 070444Z 26006KT 10SM OVC015 14/11 A3006 RMK AO2 T01440111 $
KLAX 070353Z 26007KT 10SM OVC014 14/11 A3005 RMK AO2 SLP175 T01390106 $
KLAX 070253Z 25008KT 10SM OVC014 14/11 A3004 RMK AO2 SLP170 T01440111 53005 $
KLAX 070153Z VRB06KT 10SM OVC012 15/11 A3002 RMK AO2 SLP165 T01500111 $
KLAX 070053Z 25012KT 10SM OVC013 16/12 A3003 RMK AO2 SLP167 T01560117 $
KLAX 062353Z 25013KT 10SM OVC013 17/12 A3002 RMK AO2 SLP165 T01670117 10194 20161 55003 $
KLAX 062253Z 26014KT 10SM OVC013 17/12 A3002 RMK AO2 SLP163 T01720122 $
KLAX 062226Z 26014G19KT 10SM OVC014 18/12 A3002 RMK AO2 T01780122 $
KLAX 062213Z 26013G19KT 10SM BKN015 18/12 A3002 RMK AO2 T01830122 $
KLAX 062153Z 25013KT 10SM SCT016 18/12 A3003 RMK AO2 SLP167 T01830117 $
KLAX 062053Z 23009KT 8SM FEW027 FEW140 18/12 A3003 RMK AO2 SLP167 T01830117 58008 $
KLAX 061953Z 26011KT 8SM FEW023 FEW100 19/12 A3004 RMK AO2 SLP171 T01890117 $
KLAX 061853Z 26010KT 8SM FEW022 SCT100 18/12 A3005 RMK AO2 SLP175 T01830117 $
KLAX 061813Z 26010KT 7SM SCT021 18/12 A3005 RMK AO2 T01830122 $
KLAX 061753Z 26009KT 8SM BKN020 18/12 A3005 RMK AO2 SLP175 BKN V SCT T01780122 10183 20139 50002 $